Time;durP1;ratioP1;P1;durP2;ratioP2;P2;SDS_P1;SDS_P2;PMS_P1;PMS_P2;Temp;Humidity;BMP_temperature;BMP_pressure;BME280_temperature;BME280_humidity;BME280_pressure;Samples;Min_cycle;Max_cycle;Signal;HPM_P1;HPM_P2
2022/09/03 00:01:36;;;;;;;3.22;1.90;;;19.80;70.10;;;;;;5014804;28;20045;-79
2022/09/03 00:04:10;;;;;;;2.13;1.30;;;19.70;70.20;;;;;;4997404;28;20037;-79
2022/09/03 00:06:41;;;;;;;4.25;1.50;;;19.70;70.20;;;;;;5014440;28;20116;-79
2022/09/03 00:09:41;;;;;;;3.08;1.50;;;19.60;70.30;;;;;;5014448;28;20030;-79
2022/09/03 00:12:24;;;;;;;3.35;1.52;;;19.60;70.60;;;;;;5014699;28;20105;-78
2022/09/03 00:14:56;;;;;;;4.22;1.40;;;19.50;70.60;;;;;;4996981;28;20030;-78
2022/09/03 00:17:28;;;;;;;3.95;1.55;;;19.50;70.80;;;;;;5014329;28;20050;-78
2022/09/03 00:20:09;;;;;;;3.17;1.50;;;19.50;70.90;;;;;;5014082;28;20441;-79
2022/09/03 00:22:57;;;;;;;3.88;2.00;;;19.50;70.90;;;;;;5014331;28;20025;-79
2022/09/03 00:25:40;;;;;;;3.67;1.98;;;19.50;71.00;;;;;;5014390;28;20044;-79
2022/09/03 00:28:34;;;;;;;5.10;1.73;;;19.40;71.10;;;;;;5014354;28;20040;-78
2022/09/03 00:31:43;;;;;;;2.97;1.23;;;19.40;71.10;;;;;;5014348;28;20042;-79
2022/09/03 00:34:22;;;;;;;1.98;1.20;;;19.40;71.10;;;;;;5013799;28;20140;-79
2022/09/03 00:36:49;;;;;;;3.90;1.42;;;19.40;71.20;;;;;;5013839;28;20036;-79
2022/09/03 00:39:20;;;;;;;2.45;1.08;;;19.30;71.20;;;;;;5013898;28;20080;-78
2022/09/03 00:42:23;;;;;;;4.88;1.30;;;19.30;71.40;;;;;;5014200;28;20030;-78
2022/09/03 00:45:08;;;;;;;2.38;1.20;;;19.20;71.50;;;;;;5014000;28;20034;-79
2022/09/03 00:48:15;;;;;;;3.40;1.50;;;19.20;71.70;;;;;;5013868;28;20033;-79
2022/09/03 00:51:00;;;;;;;3.95;1.85;;;19.20;72.00;;;;;;4991431;28;20049;-78
2022/09/03 00:53:50;;;;;;;3.63;1.50;;;19.10;72.00;;;;;;5013779;28;20069;-79
2022/09/03 00:56:38;;;;;;;2.40;1.17;;;19.10;72.00;;;;;;5013554;28;20064;-78
2022/09/03 00:59:34;;;;;;;4.57;1.30;;;19.20;72.10;;;;;;5013935;28;20125;-79
2022/09/03 01:02:15;;;;;;;2.03;1.10;;;19.10;72.00;;;;;;5012266;28;20046;-79
2022/09/03 01:05:10;;;;;;;2.28;1.05;;;19.10;72.20;;;;;;5013628;28;20054;-79
2022/09/03 01:07:58;;;;;;;2.00;1.20;;;19.00;72.40;;;;;;5013327;28;20077;-78
2022/09/03 01:10:58;;;;;;;1.60;1.00;;;19.00;72.60;;;;;;5013186;28;20033;-78
2022/09/03 01:13:37;;;;;;;4.82;1.13;;;19.00;72.60;;;;;;5013677;28;20591;-79
2022/09/03 01:16:05;;;;;;;;;;;19.00;72.60;;;;;;5013479;28;20029;-78
2022/09/03 01:18:47;;;;;;;1.92;0.95;;;18.90;72.70;;;;;;5013230;28;20042;-78
2022/09/03 01:21:13;;;;;;;3.97;1.40;;;18.90;72.90;;;;;;5013365;28;20046;-78
2022/09/03 01:23:48;;;;;;;2.47;1.25;;;18.80;73.10;;;;;;5013298;28;20025;-78
2022/09/03 01:26:55;;;;;;;1.67;1.10;;;18.80;73.10;;;;;;4995517;28;20045;-78
2022/09/03 01:29:50;;;;;;;4.32;1.20;;;18.80;73.20;;;;;;4986049;28;20052;-79
2022/09/03 01:32:41;;;;;;;2.42;1.13;;;18.70;73.90;;;;;;4995624;28;20037;-78
2022/09/03 01:35:11;;;;;;;2.17;1.20;;;18.80;73.40;;;;;;5001956;28;20293;-79
2022/09/03 01:37:52;;;;;;;2.38;1.17;;;18.70;73.40;;;;;;5012795;28;20030;-79
2022/09/03 01:40:53;;;;;;;3.33;1.00;;;18.80;73.40;;;;;;5012832;28;20038;-78
2022/09/03 01:43:49;;;;;;;2.63;1.35;;;18.70;73.50;;;;;;5012836;28;20029;-78
2022/09/03 01:46:24;;;;;;;2.83;1.00;;;18.60;73.60;;;;;;5012687;28;20449;-78
2022/09/03 01:49:10;;;;;;;2.63;1.20;;;18.60;73.80;;;;;;4995183;28;20549;-78
2022/09/03 01:51:35;;;;;;;1.63;1.02;;;18.60;73.80;;;;;;5012789;28;20442;-79
2022/09/03 01:54:13;;;;;;;2.53;1.10;;;18.60;74.00;;;;;;5012615;28;20042;-78
2022/09/03 01:57:06;;;;;;;3.27;1.27;;;18.50;74.20;;;;;;5012392;28;20064;-78
2022/09/03 01:59:36;;;;;;;3.45;1.13;;;18.50;74.30;;;;;;5012458;28;20044;-79
2022/09/03 02:02:24;;;;;;;2.85;1.30;;;18.50;74.40;;;;;;5012516;28;20088;-78
2022/09/03 02:04:58;;;;;;;2.80;1.20;;;18.50;74.50;;;;;;5012516;28;20061;-79
2022/09/03 02:07:32;;;;;;;2.80;1.30;;;18.50;74.60;;;;;;5012287;28;20037;-78
2022/09/03 02:09:59;;;;;;;3.58;1.45;;;18.50;74.90;;;;;;5012167;28;20105;-78
2022/09/03 02:12:27;;;;;;;3.08;1.50;;;18.40;75.10;;;;;;5012258;28;20478;-79
2022/09/03 02:14:54;;;;;;;1.98;1.20;;;18.40;75.20;;;;;;5012197;28;20030;-79
2022/09/03 02:17:20;;;;;;;3.25;1.55;;;18.30;75.50;;;;;;5026380;22;20123;-79
2022/09/03 02:19:46;;;;;;;2.50;1.30;;;18.30;75.60;;;;;;4993344;28;20041;-80
2022/09/03 02:22:12;;;;;;;3.05;1.50;;;18.30;75.80;;;;;;5012479;28;20025;-80
2022/09/03 02:24:38;;;;;;;3.53;1.33;;;18.30;75.90;;;;;;5012235;28;20037;-80
2022/09/03 02:27:04;;;;;;;4.28;1.40;;;18.30;75.90;;;;;;5011926;28;20052;-81
2022/09/03 02:29:31;;;;;;;4.10;1.30;;;18.20;76.10;;;;;;4994300;28;20080;-82
2022/09/03 02:31:57;;;;;;;4.38;1.67;;;18.30;76.20;;;;;;5012280;28;20029;-82
2022/09/03 02:34:23;;;;;;;5.20;1.30;;;18.20;76.20;;;;;;5011973;28;20029;-82
2022/09/03 02:36:49;;;;;;;5.40;1.80;;;18.30;76.20;;;;;;5012077;28;20030;-80
2022/09/03 02:39:15;;;;;;;5.43;1.67;;;18.30;76.40;;;;;;5011724;28;20121;-80
2022/09/03 02:41:41;;;;;;;3.78;1.58;;;18.20;76.40;;;;;;5011784;28;20030;-82
2022/09/03 02:44:22;;;;;;;2.63;1.42;;;18.20;76.70;;;;;;5011705;28;20076;-82
2022/09/03 02:46:58;;;;;;;3.55;1.40;;;18.10;77.00;;;;;;5011654;28;20042;-79
2022/09/03 02:49:24;;;;;;;4.18;1.50;;;18.10;77.20;;;;;;5011560;28;20113;-82
2022/09/03 02:51:49;;;;;;;4.97;1.30;;;18.00;77.40;;;;;;5012034;28;20113;-82
2022/09/03 02:54:15;;;;;;;2.90;1.30;;;17.90;77.50;;;;;;5011690;28;20409;-80
2022/09/03 02:56:42;;;;;;;4.97;1.40;;;17.90;77.70;;;;;;5011369;28;20028;-82
2022/09/03 02:59:08;;;;;;;4.43;1.48;;;17.90;77.90;;;;;;5011324;28;20026;-80
2022/09/03 03:01:35;;;;;;;4.78;2.17;;;17.90;78.00;;;;;;5011502;28;20060;-82
2022/09/03 03:04:01;;;;;;;4.40;2.17;;;17.90;78.10;;;;;;4994089;28;20030;-82
2022/09/03 03:06:27;;;;;;;3.80;1.65;;;17.80;78.30;;;;;;5011127;28;20426;-82
2022/09/03 03:08:54;;;;;;;4.25;1.50;;;17.80;78.40;;;;;;5011189;28;20037;-82
2022/09/03 03:11:21;;;;;;;4.32;1.63;;;17.70;78.60;;;;;;5011302;28;20038;-82
2022/09/03 03:13:47;;;;;;;2.67;1.52;;;17.70;78.70;;;;;;5011872;28;20041;-82
2022/09/03 03:16:14;;;;;;;4.57;1.48;;;17.70;78.80;;;;;;5011041;28;20034;-79
2022/09/03 03:18:40;;;;;;;3.83;1.40;;;17.60;78.80;;;;;;5011080;28;20399;-82
2022/09/03 03:21:08;;;;;;;3.88;1.40;;;17.60;78.90;;;;;;5011059;28;20057;-82
2022/09/03 03:23:35;;;;;;;3.15;1.35;;;17.60;78.90;;;;;;5011235;28;20474;-82
2022/09/03 03:26:02;;;;;;;2.90;1.35;;;17.60;79.00;;;;;;4993433;28;20486;-82
2022/09/03 03:28:32;;;;;;;3.80;1.48;;;17.60;78.90;;;;;;5011115;28;20056;-82
2022/09/03 03:31:04;;;;;;;3.80;1.25;;;17.60;78.80;;;;;;5010854;28;20029;-82
2022/09/03 03:33:29;;;;;;;3.85;1.40;;;17.60;78.70;;;;;;5011041;28;20026;-82
2022/09/03 03:35:55;;;;;;;3.05;1.30;;;17.60;78.90;;;;;;5010767;28;20414;-82
2022/09/03 03:38:21;;;;;;;4.13;1.30;;;17.60;79.00;;;;;;5011018;28;20029;-81
2022/09/03 03:40:46;;;;;;;2.65;1.30;;;17.60;79.00;;;;;;5010817;28;20398;-82
2022/09/03 03:43:12;;;;;;;3.88;1.15;;;17.60;79.00;;;;;;5010914;28;20033;-82
2022/09/03 03:45:38;;;;;;;3.30;1.35;;;17.60;79.10;;;;;;5010766;28;20564;-82
2022/09/03 03:48:04;;;;;;;2.75;1.35;;;17.60;79.10;;;;;;5010880;28;20034;-82
2022/09/03 03:50:30;;;;;;;2.30;1.30;;;17.60;79.20;;;;;;5010625;28;20044;-82
2022/09/03 03:52:59;;;;;;;2.33;1.40;;;17.50;79.10;;;;;;5010782;28;20034;-82
2022/09/03 03:55:25;;;;;;;2.45;1.50;;;17.50;79.10;;;;;;4993422;28;20394;-82
2022/09/03 03:57:50;;;;;;;4.85;1.75;;;17.50;79.00;;;;;;5010543;28;20030;-82
2022/09/03 04:00:16;;;;;;;3.20;1.65;;;17.50;79.20;;;;;;5010611;28;20044;-82
2022/09/03 04:02:42;;;;;;;3.25;1.40;;;17.50;79.20;;;;;;5010910;28;20045;-82
2022/09/03 04:05:08;;;;;;;3.53;1.88;;;17.50;79.20;;;;;;5010651;28;20117;-82
2022/09/03 04:07:34;;;;;;;3.08;1.48;;;17.50;79.30;;;;;;5010537;28;20040;-82
2022/09/03 04:10:00;;;;;;;2.58;1.30;;;17.40;79.40;;;;;;4992921;28;20037;-82
2022/09/03 04:12:26;;;;;;;2.00;1.20;;;17.40;79.60;;;;;;5010697;28;20255;-82
2022/09/03 04:14:52;;;;;;;3.13;1.40;;;17.40;79.60;;;;;;5010739;28;20109;-82
2022/09/03 04:17:18;;;;;;;2.60;1.40;;;17.40;79.70;;;;;;5010207;28;20480;-82
2022/09/03 04:19:47;;;;;;;2.70;1.23;;;17.40;79.70;;;;;;5010369;28;20036;-82
2022/09/03 04:22:14;;;;;;;3.80;1.45;;;17.40;79.70;;;;;;5010775;28;20030;-82
2022/09/03 04:24:40;;;;;;;3.65;1.52;;;17.40;79.60;;;;;;4992987;28;20034;-82
2022/09/03 04:27:05;;;;;;;3.47;1.38;;;17.40;79.70;;;;;;5010683;28;20033;-82
2022/09/03 04:29:31;;;;;;;6.88;1.70;;;17.40;79.90;;;;;;5010388;28;20061;-82
2022/09/03 04:34:41;;;;;;;3.15;1.63;;;17.40;80.10;;;;;;5010569;28;20060;-82
2022/09/03 04:37:08;;;;;;;5.03;1.80;;;17.40;80.00;;;;;;5010140;28;20042;-82
2022/09/03 04:39:34;;;;;;;8.07;1.80;;;17.40;79.90;;;;;;5010328;28;20034;-82
2022/09/03 04:42:00;;;;;;;3.63;1.65;;;17.40;80.00;;;;;;4992862;28;20045;-82
2022/09/03 04:44:25;;;;;;;3.50;1.80;;;17.40;80.10;;;;;;5012704;28;20033;-82
2022/09/03 04:46:52;;;;;;;5.28;1.77;;;17.40;80.20;;;;;;5013869;28;20033;-81
2022/09/03 04:49:18;;;;;;;1.90;1.40;;;17.40;80.20;;;;;;5013663;28;20030;-82
2022/09/03 04:51:44;;;;;;;3.13;1.60;;;17.30;80.20;;;;;;4996504;28;20282;-82
2022/09/03 04:54:10;;;;;;;7.22;2.05;;;17.30;80.20;;;;;;4996261;28;20467;-81
2022/09/03 04:56:38;;;;;;;3.22;1.77;;;17.30;80.30;;;;;;5013544;28;20022;-81
2022/09/03 04:59:06;;;;;;;4.35;1.48;;;17.30;80.30;;;;;;4995890;28;20030;-81
2022/09/03 05:01:33;;;;;;;3.58;1.42;;;17.30;80.20;;;;;;4979935;28;20030;-81
2022/09/03 05:04:00;;;;;;;3.00;1.42;;;17.30;80.30;;;;;;5013721;28;20033;-82
2022/09/03 05:06:27;;;;;;;3.75;1.63;;;17.40;80.40;;;;;;5013602;28;20034;-82
2022/09/03 05:08:54;;;;;;;2.58;1.48;;;17.40;80.30;;;;;;5013606;28;20054;-81
2022/09/03 05:11:21;;;;;;;5.95;1.50;;;17.40;80.30;;;;;;5013555;28;20117;-82
2022/09/03 05:13:48;;;;;;;4.43;1.80;;;17.40;80.30;;;;;;4995896;28;20100;-81
2022/09/03 05:16:15;;;;;;;3.05;1.50;;;17.40;80.40;;;;;;5013144;28;20112;-82
2022/09/03 05:18:41;;;;;;;3.72;1.67;;;17.40;80.50;;;;;;5013170;28;20122;-81
2022/09/03 05:21:10;;;;;;;6.20;1.77;;;17.40;80.40;;;;;;5013416;28;20034;-82
2022/09/03 05:23:41;;;;;;;5.75;2.00;;;17.30;80.60;;;;;;5013418;28;20029;-81
2022/09/03 05:26:10;;;;;;;5.07;1.85;;;17.30;80.60;;;;;;5013019;28;20494;-82
2022/09/03 05:28:37;;;;;;;4.25;1.50;;;17.30;80.70;;;;;;5013290;28;20038;-82
2022/09/03 05:31:16;;;;;;;5.47;1.75;;;17.30;81.00;;;;;;4979329;28;20052;-82
2022/09/03 05:33:47;;;;;;;3.97;1.65;;;17.30;80.90;;;;;;5013175;28;20475;-82
2022/09/03 05:36:15;;;;;;;3.75;1.55;;;17.40;80.90;;;;;;5012933;28;20034;-82
2022/09/03 05:38:42;;;;;;;3.03;1.50;;;17.40;81.00;;;;;;5012809;28;20109;-82
2022/09/03 05:41:10;;;;;;;3.58;1.60;;;17.30;81.20;;;;;;5012924;28;20038;-82
2022/09/03 05:43:36;;;;;;;4.57;1.50;;;17.30;81.40;;;;;;5013253;28;20022;-83
2022/09/03 05:46:08;;;;;;;3.95;1.70;;;17.30;81.60;;;;;;4995285;28;20033;-84
2022/09/03 05:48:35;;;;;;;3.47;1.60;;;17.30;81.70;;;;;;4995141;28;20026;-82
2022/09/03 05:51:16;;;;;;;4.15;1.73;;;17.30;81.70;;;;;;5013147;28;20479;-81
2022/09/03 05:53:47;;;;;;;4.45;1.60;;;17.30;81.80;;;;;;5013173;28;20034;-82
2022/09/03 05:56:23;;;;;;;3.65;1.52;;;17.30;81.80;;;;;;4994162;28;20030;-83
2022/09/03 05:58:58;;;;;;;2.42;1.40;;;17.30;81.80;;;;;;4995239;28;20034;-83
2022/09/03 06:01:31;;;;;;;3.88;1.80;;;17.30;81.80;;;;;;4995389;28;20033;-81
2022/09/03 06:04:08;;;;;;;3.78;1.60;;;17.40;82.00;;;;;;4994905;28;20512;-81
2022/09/03 06:06:36;;;;;;;5.65;2.15;;;17.50;82.00;;;;;;4994832;28;20056;-82
2022/09/03 06:09:29;;;;;;;5.55;2.90;;;17.50;81.90;;;;;;5012380;28;20038;-82
2022/09/03 06:11:54;;;;;;;5.78;3.42;;;17.50;81.80;;;;;;5011454;28;20168;-82
2022/09/03 06:14:24;;;;;;;4.95;2.10;;;17.60;81.80;;;;;;5012291;28;20502;-82
2022/09/03 06:16:51;;;;;;;5.07;2.00;;;17.60;81.90;;;;;;5012164;28;20022;-81
2022/09/03 06:19:17;;;;;;;4.47;1.60;;;17.70;81.60;;;;;;5012098;28;20030;-82
2022/09/03 06:21:44;;;;;;;3.60;1.65;;;17.70;81.60;;;;;;5012250;28;20080;-82
2022/09/03 06:24:15;;;;;;;3.03;1.70;;;17.80;81.60;;;;;;4994521;28;20379;-82
2022/09/03 06:26:42;;;;;;;3.70;1.50;;;17.80;81.60;;;;;;5011906;28;20037;-82
2022/09/03 06:29:08;;;;;;;3.35;1.60;;;17.90;81.60;;;;;;5012497;28;20398;-81
2022/09/03 06:31:34;;;;;;;4.60;1.67;;;17.90;81.80;;;;;;5012118;28;20041;-81
2022/09/03 06:34:03;;;;;;;4.25;2.00;;;17.90;81.80;;;;;;4995094;28;20036;-81
2022/09/03 06:36:29;;;;;;;5.45;1.80;;;17.90;81.80;;;;;;5011935;28;20053;-81
2022/09/03 06:38:56;;;;;;;3.53;1.90;;;18.00;81.80;;;;;;5011703;28;20552;-81
2022/09/03 06:41:27;;;;;;;4.95;1.92;;;18.00;81.60;;;;;;5011758;28;20057;-81
2022/09/03 06:43:57;;;;;;;5.30;1.80;;;18.10;81.40;;;;;;5011832;28;20083;-81
2022/09/03 06:46:24;;;;;;;5.55;2.13;;;18.10;81.30;;;;;;5011950;28;20061;-81
2022/09/03 06:48:50;;;;;;;5.13;1.88;;;18.20;81.40;;;;;;5012039;28;20293;-81
2022/09/03 06:51:22;;;;;;;4.45;1.88;;;18.20;81.40;;;;;;5011611;28;20042;-81
2022/09/03 06:53:50;;;;;;;5.80;1.95;;;18.20;82.00;;;;;;5011611;28;20022;-81
2022/09/03 06:56:22;;;;;;;3.42;1.80;;;18.30;81.50;;;;;;5011453;28;20113;-81
2022/09/03 06:58:48;;;;;;;3.78;1.75;;;18.30;81.40;;;;;;4993966;28;20026;-81
2022/09/03 07:01:19;;;;;;;4.90;1.90;;;18.40;81.20;;;;;;5011563;28;20037;-81
2022/09/03 07:03:47;;;;;;;4.80;1.85;;;18.40;81.10;;;;;;5011625;28;20034;-81
2022/09/03 07:06:18;;;;;;;5.50;1.80;;;18.50;81.10;;;;;;5010795;28;20105;-81
2022/09/03 07:08:45;;;;;;;4.00;1.40;;;18.50;81.10;;;;;;4993695;28;20038;-81
2022/09/03 07:11:13;;;;;;;3.47;1.77;;;18.60;80.90;;;;;;4993616;28;20030;-81
2022/09/03 07:13:43;;;;;;;3.80;1.55;;;18.60;80.80;;;;;;4993719;28;20076;-81
2022/09/03 07:16:20;;;;;;;2.47;1.40;;;18.70;80.80;;;;;;4993531;28;20037;-81
2022/09/03 07:18:47;;;;;;;5.43;2.10;;;18.70;80.60;;;;;;5011029;28;20108;-81
2022/09/03 07:21:15;;;;;;;3.00;1.52;;;18.80;80.50;;;;;;5011243;28;20029;-81
2022/09/03 07:23:42;;;;;;;4.30;1.75;;;18.80;80.30;;;;;;5011256;28;20058;-81
2022/09/03 07:26:14;;;;;;;2.45;1.45;;;18.90;80.20;;;;;;5010936;28;20080;-81
2022/09/03 07:28:42;;;;;;;4.53;1.70;;;18.90;80.30;;;;;;5011008;28;20036;-81
2022/09/03 07:31:14;;;;;;;4.05;1.50;;;18.90;80.30;;;;;;5010940;28;20026;-81
2022/09/03 07:33:43;;;;;;;5.03;1.88;;;18.90;80.70;;;;;;4977295;28;20390;-81
2022/09/03 07:36:13;;;;;;;5.00;2.33;;;19.00;80.70;;;;;;5010816;28;20026;-82
2022/09/03 07:38:41;;;;;;;3.35;1.33;;;19.10;80.20;;;;;;5009521;28;20146;-81
2022/09/03 07:41:08;;;;;;;3.20;1.38;;;19.10;80.10;;;;;;5010981;28;20037;-81
2022/09/03 07:43:42;;;;;;;3.17;1.33;;;19.20;80.10;;;;;;5010955;28;20062;-81
2022/09/03 07:46:21;;;;;;;2.28;0.98;;;19.20;79.60;;;;;;5010670;28;20030;-81
2022/09/03 07:48:51;;;;;;;3.25;1.33;;;19.30;79.20;;;;;;5010743;28;20069;-81
2022/09/03 07:51:19;;;;;;;1.88;1.10;;;19.30;79.00;;;;;;5010796;28;20030;-81
2022/09/03 07:53:46;;;;;;;1.98;1.10;;;19.40;78.60;;;;;;5010844;28;20075;-81
2022/09/03 07:56:13;;;;;;;2.15;1.27;;;19.50;78.00;;;;;;5010558;28;20077;-81
2022/09/03 07:58:40;;;;;;;3.55;1.60;;;19.50;77.40;;;;;;5010687;28;20022;-81
2022/09/03 08:01:11;;;;;;;4.57;1.55;;;19.60;76.50;;;;;;5011029;28;20041;-81
2022/09/03 08:03:41;;;;;;;6.25;1.40;;;19.70;75.80;;;;;;5010912;28;20030;-81
2022/09/03 08:06:08;;;;;;;3.05;1.70;;;19.80;75.70;;;;;;5010906;28;20041;-81
2022/09/03 08:08:36;;;;;;;2.20;1.20;;;19.80;75.30;;;;;;4992858;28;20041;-81
2022/09/03 08:11:16;;;;;;;2.13;1.20;;;19.90;75.20;;;;;;5010633;28;20390;-81
2022/09/03 08:13:44;;;;;;;2.20;1.10;;;20.00;75.10;;;;;;5010937;28;20554;-81
2022/09/03 08:16:11;;;;;;;3.03;1.40;;;20.00;75.00;;;;;;5010441;28;20026;-81
2022/09/03 08:18:38;;;;;;;3.90;1.65;;;20.00;74.90;;;;;;5025667;23;20050;-78
2022/09/03 08:21:09;;;;;;;2.70;1.20;;;20.10;74.80;;;;;;5014465;28;20030;-78
2022/09/03 08:23:39;;;;;;;2.15;1.20;;;20.10;75.00;;;;;;5014484;28;20048;-78
2022/09/03 08:26:06;;;;;;;3.38;1.40;;;20.10;75.10;;;;;;5014239;28;20467;-78
2022/09/03 08:28:33;;;;;;;3.22;1.40;;;20.20;74.80;;;;;;5014024;28;20067;-77
2022/09/03 08:31:10;;;;;;;4.57;2.80;;;20.20;74.50;;;;;;5014421;28;20044;-77
2022/09/03 08:33:37;;;;;;;3.38;1.23;;;20.20;74.30;;;;;;5014395;28;20036;-77
2022/09/03 08:36:12;;;;;;;4.50;1.20;;;20.30;74.00;;;;;;4980320;28;20080;-78
2022/09/03 08:38:39;;;;;;;2.80;1.30;;;20.40;73.80;;;;;;5013964;28;20029;-78
2022/09/03 08:41:05;;;;;;;1.77;1.15;;;20.40;73.70;;;;;;5014457;28;20034;-78
2022/09/03 08:43:37;;;;;;;3.47;1.20;;;20.40;74.00;;;;;;5014337;28;20038;-78
2022/09/03 08:46:03;;;;;;;5.00;1.40;;;20.50;73.80;;;;;;5013969;28;20491;-78
2022/09/03 08:48:31;;;;;;;3.08;1.40;;;20.50;74.00;;;;;;5013853;28;20037;-78
2022/09/03 08:51:01;;;;;;;3.45;1.20;;;20.50;73.80;;;;;;5013663;28;20406;-78
2022/09/03 08:53:47;;;;;;;3.70;1.20;;;20.60;73.60;;;;;;5013977;28;20042;-77
2022/09/03 08:56:29;;;;;;;2.67;1.50;;;20.60;73.40;;;;;;5013781;28;20030;-78
2022/09/03 08:58:55;;;;;;;4.78;1.30;;;20.60;74.20;;;;;;5013503;28;20022;-78
2022/09/03 09:01:59;;;;;;;2.85;1.35;;;20.70;73.20;;;;;;5013645;28;20112;-78
2022/09/03 09:04:34;;;;;;;3.17;1.13;;;20.70;73.20;;;;;;5002986;28;20417;-77
2022/09/03 09:07:31;;;;;;;3.95;1.38;;;20.70;73.50;;;;;;5013475;28;20033;-78
2022/09/03 09:10:29;;;;;;;2.75;1.20;;;20.80;73.50;;;;;;5013249;28;20025;-78
2022/09/03 09:13:26;;;;;;;3.63;1.40;;;20.80;73.20;;;;;;5013528;28;20506;-78
2022/09/03 09:16:11;;;;;;;3.13;1.40;;;20.90;73.20;;;;;;5013352;28;20064;-78
2022/09/03 09:19:16;;;;;;;2.65;1.23;;;20.90;73.60;;;;;;5013087;28;20277;-78
2022/09/03 09:22:09;;;;;;;2.42;1.40;;;20.90;73.60;;;;;;4973201;28;20379;-78
2022/09/03 09:24:40;;;;;;;3.75;1.38;;;20.90;73.70;;;;;;5013351;28;20030;-78
2022/09/03 09:27:07;;;;;;;2.95;1.17;;;21.00;73.70;;;;;;4995722;28;20097;-78
2022/09/03 09:29:36;;;;;;;2.53;1.60;;;21.00;73.80;;;;;;5012790;28;20419;-78
2022/09/03 09:32:05;;;;;;;3.38;1.45;;;21.00;73.70;;;;;;5013242;28;20398;-78
2022/09/03 09:34:36;;;;;;;2.88;1.45;;;21.00;73.90;;;;;;5013120;28;20324;-78
2022/09/03 09:37:08;;;;;;;3.95;1.63;;;21.00;74.10;;;;;;5013110;28;20029;-78
2022/09/03 09:39:34;;;;;;;1.95;1.15;;;21.00;74.20;;;;;;5013007;28;20105;-78
2022/09/03 09:42:09;;;;;;;4.60;1.60;;;21.00;74.00;;;;;;5012962;28;20117;-78
2022/09/03 09:44:40;;;;;;;2.42;1.50;;;21.10;74.00;;;;;;5012941;28;20112;-78
2022/09/03 09:47:19;;;;;;;3.95;1.38;;;21.10;74.70;;;;;;5012586;28;20109;-78
2022/09/03 09:49:45;;;;;;;2.45;1.35;;;21.10;73.90;;;;;;5012568;28;20033;-78
2022/09/03 09:52:14;;;;;;;2.20;1.20;;;21.10;74.20;;;;;;5012910;28;20036;-78
2022/09/03 09:54:41;;;;;;;;;;;21.00;74.70;;;;;;5013283;28;20426;-78
2022/09/03 09:57:21;;;;;;;1.67;1.13;;;21.00;74.80;;;;;;5012961;28;19917;-78
2022/09/03 09:59:48;;;;;;;3.50;1.40;;;21.00;75.10;;;;;;5012460;28;20084;-78
2022/09/03 10:02:25;;;;;;;1.88;1.40;;;21.00;75.20;;;;;;5012742;28;20034;-78
2022/09/03 10:04:52;;;;;;;3.22;1.30;;;21.00;74.90;;;;;;5012556;28;20042;-78
2022/09/03 10:07:21;;;;;;;2.33;1.33;;;21.10;74.80;;;;;;5012801;28;20034;-78
2022/09/03 10:10:05;;;;;;;3.20;1.20;;;21.10;74.70;;;;;;5012175;28;20081;-78
2022/09/03 10:12:40;;;;;;;6.90;3.67;;;21.20;74.80;;;;;;5012504;28;20033;-78
2022/09/03 10:15:30;;;;;;;6.25;3.53;;;21.20;75.00;;;;;;5012422;28;20514;-78
2022/09/03 10:18:14;;;;;;;4.07;2.38;;;21.30;75.60;;;;;;4994340;28;20040;-78
2022/09/03 10:21:27;;;;;;;2.25;1.75;;;21.40;76.20;;;;;;4994475;28;20506;-77
2022/09/03 10:24:01;;;;;;;2.85;1.23;;;21.30;77.00;;;;;;5005037;28;20049;-78
2022/09/03 10:26:31;;;;;;;2.58;1.40;;;21.40;77.00;;;;;;5011990;28;20061;-78
2022/09/03 10:29:01;;;;;;;3.22;1.90;;;21.40;76.80;;;;;;4994392;28;20506;-78
2022/09/03 10:32:00;;;;;;;4.00;1.83;;;21.40;76.80;;;;;;5010688;28;20057;-78
2022/09/03 10:34:58;;;;;;;4.03;2.35;;;21.50;76.90;;;;;;5011933;28;20026;-78
2022/09/03 10:37:33;;;;;;;3.53;1.80;;;21.50;77.00;;;;;;5011954;28;20033;-78
2022/09/03 10:40:37;;;;;;;5.47;1.67;;;21.50;77.60;;;;;;5011780;28;20033;-78
2022/09/03 10:43:15;;;;;;;4.57;1.80;;;21.60;77.10;;;;;;4931734;29;20110;-78
2022/09/03 10:46:05;;;;;;;4.07;1.98;;;21.60;76.90;;;;;;5003839;28;20495;-78
2022/09/03 10:48:52;;;;;;;5.97;2.00;;;21.60;76.60;;;;;;5011544;28;20550;-79
2022/09/03 10:51:28;;;;;;;3.50;2.10;;;21.70;76.80;;;;;;4994148;28;20045;-78
2022/09/03 10:54:21;;;;;;;2.95;1.35;;;21.80;77.80;;;;;;5011839;28;20038;-78
2022/09/03 10:56:53;;;;;;;2.25;1.35;;;21.80;77.70;;;;;;5011436;28;20030;-78
2022/09/03 10:59:54;;;;;;;4.25;1.83;;;21.80;78.10;;;;;;5011376;28;20097;-78
2022/09/03 11:02:41;;;;;;;3.35;1.77;;;21.80;77.90;;;;;;4931743;29;20448;-79
2022/09/03 11:05:38;;;;;;;3.97;1.80;;;21.80;77.60;;;;;;5006417;28;20044;-78
2022/09/03 11:08:38;;;;;;;4.38;2.20;;;21.90;78.10;;;;;;5011396;28;20092;-78
2022/09/03 11:11:18;;;;;;;3.35;1.60;;;21.90;78.20;;;;;;4943685;28;20129;-78
2022/09/03 11:13:53;;;;;;;3.35;2.00;;;21.80;78.30;;;;;;5011399;28;20117;-79
2022/09/03 11:16:27;;;;;;;7.10;3.20;;;21.80;78.50;;;;;;5011177;28;20048;-79
2022/09/03 11:18:53;;;;;;;5.43;3.38;;;21.80;78.70;;;;;;5010868;28;20037;-79
2022/09/03 11:21:23;;;;;;;3.38;2.60;;;21.80;78.90;;;;;;5011660;28;20052;-79
2022/09/03 11:24:20;;;;;;;5.70;2.45;;;21.90;78.90;;;;;;4993853;28;20108;-79
2022/09/03 11:26:53;;;;;;;3.53;2.00;;;21.90;78.20;;;;;;5010057;28;20041;-79
2022/09/03 11:29:49;;;;;;;3.40;1.73;;;22.00;78.00;;;;;;5010718;28;20457;-79
2022/09/03 11:32:21;;;;;;;3.10;1.70;;;22.00;78.20;;;;;;5011318;28;20037;-79
2022/09/03 11:34:53;;;;;;;3.55;1.92;;;22.10;78.80;;;;;;5011109;28;20538;-80
2022/09/03 11:37:24;;;;;;;4.20;2.03;;;22.10;79.70;;;;;;5010874;28;20040;-80
2022/09/03 11:40:06;;;;;;;2.55;1.90;;;22.10;80.20;;;;;;5010755;28;20041;-79
2022/09/03 11:42:38;;;;;;;3.55;1.90;;;22.10;80.90;;;;;;5011042;28;20029;-79
2022/09/03 11:45:25;;;;;;;3.85;2.22;;;22.10;81.70;;;;;;5011093;28;20249;-79
2022/09/03 11:47:51;;;;;;;3.13;2.00;;;22.10;81.50;;;;;;5010994;28;20045;-79
2022/09/03 11:50:22;;;;;;;3.78;1.90;;;22.20;81.60;;;;;;5010620;28;20109;-79
2022/09/03 11:52:50;;;;;;;3.38;1.88;;;22.20;81.50;;;;;;5012286;28;20030;-79
2022/09/03 11:55:32;;;;;;;2.70;1.80;;;22.20;81.60;;;;;;5014856;28;20034;-78
2022/09/03 11:58:09;;;;;;;4.50;2.45;;;22.20;81.30;;;;;;4998384;28;20037;-79
2022/09/03 12:00:44;;;;;;;3.75;2.35;;;22.20;81.10;;;;;;5014729;28;20040;-79
2022/09/03 12:03:15;;;;;;;3.60;2.30;;;22.30;80.60;;;;;;5014904;28;20449;-79
2022/09/03 12:06:26;;;;;;;2.92;2.08;;;22.30;80.00;;;;;;5014794;28;20105;-79
2022/09/03 12:09:30;;;;;;;3.85;2.00;;;22.30;79.60;;;;;;5014435;28;20030;-79
2022/09/03 12:12:12;;;;;;;3.38;2.40;;;22.30;79.80;;;;;;4971153;28;20045;-79
2022/09/03 12:14:57;;;;;;;3.45;2.60;;;22.30;79.90;;;;;;5014882;28;20042;-79
2022/09/03 12:18:17;;;;;;;4.13;2.22;;;22.30;80.20;;;;;;4996733;28;20038;-79
2022/09/03 12:20:38;;;;;;;4.13;2.63;;;22.30;78.20;;;;;;5014302;28;20029;-79
2022/09/03 12:23:04;;;;;;;4.18;2.35;;;22.30;78.30;;;;;;5014518;28;20034;-79
2022/09/03 12:25:31;;;;;;;2.67;2.13;;;22.30;77.50;;;;;;5014529;28;20030;-79
2022/09/03 12:28:02;;;;;;;3.95;1.50;;;22.30;77.40;;;;;;5014194;28;20433;-79
2022/09/03 12:30:29;;;;;;;4.57;1.90;;;22.30;76.80;;;;;;5014080;28;20030;-79
2022/09/03 12:33:06;;;;;;;3.78;1.92;;;22.30;76.40;;;;;;5014401;28;20461;-79
2022/09/03 12:35:32;;;;;;;3.63;1.85;;;22.40;76.70;;;;;;5014390;28;20030;-79
2022/09/03 12:37:58;;;;;;;2.85;1.80;;;22.40;76.70;;;;;;5013971;28;20371;-79
2022/09/03 12:40:27;;;;;;;3.53;1.88;;;22.40;76.90;;;;;;5014120;28;20025;-79
2022/09/03 12:42:54;;;;;;;3.80;1.85;;;22.40;77.00;;;;;;5014260;28;20054;-79
2022/09/03 12:45:25;;;;;;;3.83;1.85;;;22.40;76.70;;;;;;5014349;28;20120;-79
2022/09/03 12:47:52;;;;;;;4.40;2.33;;;22.40;77.10;;;;;;5013824;28;20029;-79
2022/09/03 12:50:21;;;;;;;4.43;2.63;;;22.50;77.00;;;;;;5013874;28;20030;-79
2022/09/03 12:52:49;;;;;;;4.30;2.50;;;22.60;77.00;;;;;;5014069;28;20029;-79
2022/09/03 12:55:35;;;;;;;5.10;3.25;;;22.60;77.10;;;;;;5014331;28;20529;-79
2022/09/03 12:58:10;;;;;;;4.72;3.03;;;22.60;77.20;;;;;;5014419;28;20030;-79
2022/09/03 13:00:41;;;;;;;4.13;2.38;;;22.60;77.60;;;;;;5013828;28;20446;-79
2022/09/03 13:03:39;;;;;;;5.43;2.30;;;22.60;77.70;;;;;;5014067;28;20061;-79
2022/09/03 13:06:09;;;;;;;3.58;2.03;;;22.60;77.70;;;;;;5013501;28;20038;-79
2022/09/03 13:08:49;;;;;;;3.72;2.15;;;22.60;77.60;;;;;;5013669;28;20186;-79
2022/09/03 13:11:18;;;;;;;4.65;2.20;;;22.60;77.50;;;;;;5013741;28;20034;-79
2022/09/03 13:14:20;;;;;;;3.58;2.47;;;22.60;78.30;;;;;;5014010;28;20026;-79
2022/09/03 13:17:05;;;;;;;3.22;2.00;;;22.60;78.00;;;;;;4933895;29;20063;-79
2022/09/03 13:19:57;;;;;;;3.13;1.88;;;22.50;78.20;;;;;;5008332;28;20578;-79
2022/09/03 13:22:35;;;;;;;2.42;1.70;;;22.50;78.10;;;;;;5014002;28;20038;-79
2022/09/03 13:25:21;;;;;;;3.25;2.15;;;22.50;78.40;;;;;;5013768;28;20033;-79
2022/09/03 13:28:14;;;;;;;3.03;1.65;;;22.50;78.70;;;;;;5013398;28;20048;-80